CSAV Lonquen — A8OT2 — position and weather

sailwx.info

Track history (hours):
 
Tides and Currents Weather Stations Pressure Air Temp Water Temp Dewpoint Dewpoint Depression Visibility Wind Speed Wind Dir Waves Ship Positions

CSAV Lonquen

Last reported at 2016-Feb-04 03:33 UTC. Time now 2016-Feb-11 08:50 UTC.
Position N 32°53' E 034°54'.

Length 261 m; draft 10.3 m.

Type: Ship (hazmat cat A). MMSI: 636091501.

Date/timePositionNaut miles runAvg speedWind from/ knotsBaromVisibWave heightAir tempDewpointWater temp
2016-Feb-04 03:33N 32°53' E 034°54'7 6.9
2016-Feb-04 02:34N 32°48' E 034°48'9 9.0
2016-Feb-04 01:33N 32°39' E 034°45'1413.5
2016-Feb-04 00:33N 32°27' E 034°40'1413.7
2016-Feb-03 23:34N 32°13' E 034°36'1513.7
2016-Feb-03 22:27N 31°59' E 034°31'10 9.4
2016-Feb-03 21:22N 31°50' E 034°38'160 6.5
2016-Feb-02 20:33N 34°13' E 033°11'1616.4
2016-Feb-02 19:33N 34°29' E 033°06'1110.8
2016-Feb-02 18:33N 34°39' E 033°01'0 0.3
2016-Feb-02 17:33N 34°39' E 033°01'0 0.0
2016-Feb-02 16:33N 34°39' E 033°01'0 0.0
2016-Feb-02 15:33N 34°39' E 033°01'0 0.0
2016-Feb-02 14:33N 34°39' E 033°01'0 0.0
2016-Feb-02 13:33N 34°39' E 033°01'0 0.0
2016-Feb-02 12:33N 34°39' E 033°01'0 0.0
2016-Feb-02 11:33N 34°39' E 033°01'0 0.0
2016-Feb-02 10:33N 34°39' E 033°01'0 0.0
2016-Feb-02 09:33N 34°39' E 033°01'0 0.0
2016-Feb-02 08:34N 34°39' E 033°01'4 4.3
2016-Feb-02 07:34N 34°36' E 033°05'1414.0
2016-Feb-02 06:33N 34°30' E 032°50'2120.6
2016-Feb-02 05:33N 34°30' E 032°25'87420.6
2016-Jan-31 11:05N 36°26' E 014°40'1221.3
2016-Jan-31 10:32N 36°29' E 014°26'2020.7
2016-Jan-31 09:34N 36°36' E 014°02'2121.2
2016-Jan-31 08:33N 36°41' E 013°37'4221.2
2016-Jan-31 06:33N 36°50' E 012°45'73720.3
2016-Jan-29 18:14N 36°19' W 002°32'1420.0
2016-Jan-29 17:33N 36°17' W 002°49'11220.9
2016-Jan-29 12:11N 36°01' W 005°07'1320.7
2016-Jan-29 11:33N 35°58' W 005°22'13919.7
2016-Jan-29 04:29N 36°18' W 008°13'2019.8
2016-Jan-29 03:29N 36°24' W 008°36'1818.6
2016-Jan-29 02:32N 36°29' W 008°57'1919.3
2016-Jan-29 01:32N 36°36' W 009°19'2019.7
2016-Jan-29 00:32N 36°52' W 009°34'2020.4
2016-Jan-28 23:32N 37°12' W 009°39'2019.2
2016-Jan-28 22:29N 37°32' W 009°44'2020.0
2016-Jan-28 21:29N 37°51' W 009°50'2020.2
2016-Jan-28 20:29N 38°11' W 009°56'1718.2
2016-Jan-28 19:33N 38°27' W 010°02'2019.8
2016-Jan-28 18:33N 38°46' W 010°07'1919.5
2016-Jan-28 17:33N 39°06' W 010°07'2019.8
2016-Jan-28 16:33N 39°26' W 010°06'2621.9
2016-Jan-28 15:21N 39°52' W 010°06'1619.0
2016-Jan-28 14:30N 40°08' W 010°06'7920.0
2016-Jan-28 10:33N 41°27' W 010°06'2719.9
2016-Jan-28 09:13N 41°54' W 010°04'66413.9
2016-Jan-26 09:32N 50°31' W 000°01'1515.5
2016-Jan-26 08:33N 50°34' E 000°22'1717.2
2016-Jan-26 07:33N 50°42' E 000°46'1919.1
2016-Jan-26 06:34N 50°54' E 001°10'1918.9
2016-Jan-26 05:33N 51°06' E 001°33'1717.2
2016-Jan-26 04:33N 51°19' E 001°51'1313.1
2016-Jan-26 03:33N 51°22' E 002°11'1614.4
2016-Jan-26 02:29N 51°23' E 002°36'1213.2
2016-Jan-26 01:34N 51°23' E 002°56'1414.0
2016-Jan-26 00:33N 51°24' E 003°18'1212.2
2016-Jan-25 23:34N 51°26' E 003°37'1212.3
2016-Jan-25 22:34N 51°23' E 003°56'1010.2
2016-Jan-25 21:34N 51°24' E 004°12'4 3.8
2016-Jan-25 20:33N 51°21' E 004°16'0 0.0
2016-Jan-25 19:32N 51°21' E 004°16'0 0.0
2016-Jan-25 18:34N 51°21' E 004°16'0 0.0
2016-Jan-25 17:34N 51°21' E 004°16'0 0.0
2016-Jan-25 16:33N 51°21' E 004°16'0 0.0
2016-Jan-25 15:34N 51°21' E 004°16'0 0.0
2016-Jan-25 14:33N 51°21' E 004°16'0 0.0
2016-Jan-25 13:33N 51°21' E 004°16'0 0.0
2016-Jan-25 12:33N 51°21' E 004°16'0 0.0
2016-Jan-25 11:33N 51°21' E 004°16'0 0.0
2016-Jan-25 10:34N 51°21' E 004°16'0 0.0
2016-Jan-25 09:34N 51°21' E 004°16'0 0.0
2016-Jan-25 08:33N 51°21' E 004°16'6 5.6
2016-Jan-25 07:33N 51°22' E 004°07'8 7.8
2016-Jan-25 06:33N 51°22' E 003°55'1010.5
2016-Jan-25 05:34N 51°27' E 003°40'1111.3
2016-Jan-25 04:33N 51°24' E 003°22'1413.8
2016-Jan-25 03:33N 51°27' E 003°00'  
Track history (hours):
 
Tides and Currents Weather Stations Pressure Air Temp Water Temp Dewpoint Dewpoint Depression Visibility Wind Speed Wind Dir Waves Ship Positions

CSAV Lonquen

Last reported at 2016-Feb-04 03:33 UTC. Time now 2016-Feb-11 08:50 UTC.
Position N 32°53' E 034°54'.

Length 261 m; draft 10.3 m.

Type: Ship (hazmat cat A). MMSI: 636091501.

Date/timePositionNaut miles runAvg speedWind from/ knotsBaromVisibWave heightAir tempDewpointWater temp
2016-Feb-04 03:33N 32°53' E 034°54'7 6.9
2016-Feb-04 02:34N 32°48' E 034°48'9 9.0
2016-Feb-04 01:33N 32°39' E 034°45'1413.5
2016-Feb-04 00:33N 32°27' E 034°40'1413.7
2016-Feb-03 23:34N 32°13' E 034°36'1513.7
2016-Feb-03 22:27N 31°59' E 034°31'10 9.4
2016-Feb-03 21:22N 31°50' E 034°38'160 6.5
2016-Feb-02 20:33N 34°13' E 033°11'1616.4
2016-Feb-02 19:33N 34°29' E 033°06'1110.8
2016-Feb-02 18:33N 34°39' E 033°01'0 0.3
2016-Feb-02 17:33N 34°39' E 033°01'0 0.0
2016-Feb-02 16:33N 34°39' E 033°01'0 0.0
2016-Feb-02 15:33N 34°39' E 033°01'0 0.0
2016-Feb-02 14:33N 34°39' E 033°01'0 0.0
2016-Feb-02 13:33N 34°39' E 033°01'0 0.0
2016-Feb-02 12:33N 34°39' E 033°01'0 0.0
2016-Feb-02 11:33N 34°39' E 033°01'0 0.0
2016-Feb-02 10:33N 34°39' E 033°01'0 0.0
2016-Feb-02 09:33N 34°39' E 033°01'0 0.0
2016-Feb-02 08:34N 34°39' E 033°01'4 4.3
2016-Feb-02 07:34N 34°36' E 033°05'1414.0
2016-Feb-02 06:33N 34°30' E 032°50'2120.6
2016-Feb-02 05:33N 34°30' E 032°25'87420.6
2016-Jan-31 11:05N 36°26' E 014°40'1221.3
2016-Jan-31 10:32N 36°29' E 014°26'2020.7
2016-Jan-31 09:34N 36°36' E 014°02'2121.2
2016-Jan-31 08:33N 36°41' E 013°37'4221.2
2016-Jan-31 06:33N 36°50' E 012°45'73720.3
2016-Jan-29 18:14N 36°19' W 002°32'1420.0
2016-Jan-29 17:33N 36°17' W 002°49'11220.9
2016-Jan-29 12:11N 36°01' W 005°07'1320.7
2016-Jan-29 11:33N 35°58' W 005°22'13919.7
2016-Jan-29 04:29N 36°18' W 008°13'2019.8
2016-Jan-29 03:29N 36°24' W 008°36'1818.6
2016-Jan-29 02:32N 36°29' W 008°57'1919.3
2016-Jan-29 01:32N 36°36' W 009°19'2019.7
2016-Jan-29 00:32N 36°52' W 009°34'2020.4
2016-Jan-28 23:32N 37°12' W 009°39'2019.2
2016-Jan-28 22:29N 37°32' W 009°44'2020.0
2016-Jan-28 21:29N 37°51' W 009°50'2020.2
2016-Jan-28 20:29N 38°11' W 009°56'1718.2
2016-Jan-28 19:33N 38°27' W 010°02'2019.8
2016-Jan-28 18:33N 38°46' W 010°07'1919.5
2016-Jan-28 17:33N 39°06' W 010°07'2019.8
2016-Jan-28 16:33N 39°26' W 010°06'2621.9
2016-Jan-28 15:21N 39°52' W 010°06'1619.0
2016-Jan-28 14:30N 40°08' W 010°06'7920.0
2016-Jan-28 10:33N 41°27' W 010°06'2719.9
2016-Jan-28 09:13N 41°54' W 010°04'66413.9
2016-Jan-26 09:32N 50°31' W 000°01'1515.5
2016-Jan-26 08:33N 50°34' E 000°22'1717.2
2016-Jan-26 07:33N 50°42' E 000°46'1919.1
2016-Jan-26 06:34N 50°54' E 001°10'1918.9
2016-Jan-26 05:33N 51°06' E 001°33'1717.2
2016-Jan-26 04:33N 51°19' E 001°51'1313.1
2016-Jan-26 03:33N 51°22' E 002°11'1614.4
2016-Jan-26 02:29N 51°23' E 002°36'1213.2
2016-Jan-26 01:34N 51°23' E 002°56'1414.0
2016-Jan-26 00:33N 51°24' E 003°18'1212.2
2016-Jan-25 23:34N 51°26' E 003°37'1212.3
2016-Jan-25 22:34N 51°23' E 003°56'1010.2
2016-Jan-25 21:34N 51°24' E 004°12'4 3.8
2016-Jan-25 20:33N 51°21' E 004°16'0 0.0
2016-Jan-25 19:32N 51°21' E 004°16'0 0.0
2016-Jan-25 18:34N 51°21' E 004°16'0 0.0
2016-Jan-25 17:34N 51°21' E 004°16'0 0.0
2016-Jan-25 16:33N 51°21' E 004°16'0 0.0
2016-Jan-25 15:34N 51°21' E 004°16'0 0.0
2016-Jan-25 14:33N 51°21' E 004°16'0 0.0
2016-Jan-25 13:33N 51°21' E 004°16'0 0.0
2016-Jan-25 12:33N 51°21' E 004°16'0 0.0
2016-Jan-25 11:33N 51°21' E 004°16'0 0.0
2016-Jan-25 10:34N 51°21' E 004°16'0 0.0
2016-Jan-25 09:34N 51°21' E 004°16'0 0.0
2016-Jan-25 08:33N 51°21' E 004°16'6 5.6
2016-Jan-25 07:33N 51°22' E 004°07'8 7.8
2016-Jan-25 06:33N 51°22' E 003°55'1010.5
2016-Jan-25 05:34N 51°27' E 003°40'1111.3
2016-Jan-25 04:33N 51°24' E 003°22'1413.8
2016-Jan-25 03:33N 51°27' E 003°00'  

Dump ship's entire track history